Coleman, FL (33521)

5:58 PM EST en Noviembre 27, 2014 (GMT -0500)
Village Of Lake Deaton | Change Station
CLOSE
Current Station
Estación meteorológica personal
Location: Wildwood, FL
Altura: 82 ft
Estaciones meteorológicas cercanas

Alt 82 ft 28.84 °N, 82.00 °W | Updated 7 seconds ago

Despejado
Despejado
58.6 ° F
Sensación térmica 58.6 ° F
N
2.0
Viento Variable Viento desde NNO
Gusts 7.0 mph

Hoy
Alta -- | Baja -- ° F
--% Posibilidad de precipitaciones
Ayer
Alta -- | Baja -- ° F
Precip. -- pul
7:00 AM 5:30 PM
Creciente, 33% visible
Presión 30.24 pul
Visibilidad 10.0 Millas
Nubes Despejado
Punto de rocío 36 ° F
Humedad 43%
Precipitaciones 0.00 pul
Espesor de la nieve No disponible.
UV 0.0 de una escala de 12
Polen 4.00 de una escala de 12
Calidad del aire No disponible.
Flu Activity No disponible.
METAR KINF 272255Z AUTO 00000KT 10SM CLR 12/07 A3024 RMK AO2

More Conditions Fewer Conditions

Presión 30.24 pul
Visibilidad 10.0 Millas
Nubes Despejado
Punto de rocío 36 ° F
Humedad 43%
Precipitaciones 0.00 pul
Espesor de la nieve No disponible.
UV 0.0 de una escala de 12
Polen 4.00 de una escala de 12
Calidad del aire No disponible.
Flu Activity No disponible.
METAR KINF 272255Z AUTO 00000KT 10SM CLR 12/07 A3024 RMK AO2

More Conditions Fewer Conditions

10-Day Weather Forecast

Almanac

Astronomía

Nov. 27, 2014 Salida Puesta
Hora real
Crepúsculo civil
Crepúsculo náutico
Crepúsculo astronómico
Luna
Horas de luz
Horas de luz
Tomorrow will be .
, % of the Moon is Illuminated

Extremos de hoy

Máximos del estado Bajos del estado

Community

WunderPhotos

Upload Photos

1,774,125 ¡fotos cargadas!

WunderBlogs® & News

Nearby

Calidad del aire

  Calidad del aire Índice AQ Contaminante
Not available.

Grosos de nieve

Estación Profundido Altura

Actividad de terremotos

Ciudad Distance Mag. Tiempo y dato
Magnitud mínima muestra es 2,5.

Temperaturas de aguas costeras

Lugar Temperatura

Estaciones meteorológicas cercanas